createdAt,value
2022-09-02T00:01:56.637Z,6.40
2022-09-02T00:04:28.335Z,5.32
2022-09-02T00:06:57.077Z,5.57
2022-09-02T00:09:27.218Z,5.22
2022-09-02T00:11:58.057Z,5.40
2022-09-02T00:14:29.593Z,4.93
2022-09-02T00:17:00.855Z,4.20
2022-09-02T00:19:32.476Z,4.63
2022-09-02T00:22:02.679Z,5.32
2022-09-02T00:24:32.225Z,4.13
2022-09-02T00:27:01.261Z,4.03
2022-09-02T00:29:30.944Z,4.32
2022-09-02T00:32:00.244Z,4.05
2022-09-02T00:34:29.106Z,3.90
2022-09-02T00:36:59.336Z,3.75
2022-09-02T00:39:28.210Z,4.07
2022-09-02T00:41:57.056Z,4.32
2022-09-02T00:44:25.787Z,3.97
2022-09-02T00:46:54.675Z,4.35
2022-09-02T00:49:27.049Z,4.82
2022-09-02T00:52:00.477Z,5.00
2022-09-02T00:54:33.396Z,4.97
2022-09-02T00:57:04.812Z,5.95
2022-09-02T00:59:44.591Z,5.20
2022-09-02T01:02:14.563Z,5.43
2022-09-02T01:04:46.795Z,5.38
2022-09-02T01:07:16.238Z,5.20
2022-09-02T01:09:46.489Z,5.60
2022-09-02T01:12:16.329Z,5.30
2022-09-02T01:14:45.408Z,5.70
2022-09-02T01:17:20.438Z,5.95
2022-09-02T01:19:52.390Z,5.53
2022-09-02T01:22:25.415Z,5.63
2022-09-02T01:24:55.970Z,6.10
2022-09-02T01:27:25.386Z,6.13
2022-09-02T01:29:55.734Z,5.47
2022-09-02T01:32:25.789Z,5.28
2022-09-02T01:34:57.723Z,5.40
2022-09-02T01:37:28.711Z,5.90
2022-09-02T01:39:58.073Z,5.30
2022-09-02T01:42:27.395Z,5.03
2022-09-02T01:44:56.319Z,4.68
2022-09-02T01:47:28.237Z,4.18
2022-09-02T01:49:57.955Z,4.30
2022-09-02T01:52:30.253Z,4.47
2022-09-02T01:54:59.777Z,4.53
2022-09-02T01:57:28.864Z,4.32
2022-09-02T01:59:57.806Z,4.53
2022-09-02T02:02:28.438Z,4.25
2022-09-02T02:04:57.365Z,4.47
2022-09-02T02:07:28.849Z,4.05
2022-09-02T02:09:57.798Z,4.47
2022-09-02T02:12:26.984Z,5.18
2022-09-02T02:14:57.207Z,6.22
2022-09-02T02:17:26.083Z,4.80
2022-09-02T02:19:54.928Z,4.80
2022-09-02T02:22:23.717Z,4.97
2022-09-02T02:24:53.952Z,5.60
2022-09-02T02:27:22.759Z,5.20
2022-09-02T02:29:51.701Z,6.70
2022-09-02T02:32:26.268Z,6.03
2022-09-02T02:34:56.368Z,5.72
2022-09-02T02:37:25.687Z,5.55
2022-09-02T02:39:57.482Z,5.18
2022-09-02T02:42:29.069Z,6.80
2022-09-02T02:44:57.871Z,8.00
2022-09-02T02:47:27.758Z,8.77
2022-09-02T02:49:56.784Z,8.20
2022-09-02T02:52:25.668Z,7.95
2022-09-02T02:54:56.684Z,9.38
2022-09-02T02:57:25.852Z,9.55
2022-09-02T02:59:55.033Z,12.30
2022-09-02T03:02:24.161Z,18.45
2022-09-02T03:04:54.376Z,19.60
2022-09-02T03:07:24.315Z,22.15
2022-09-02T03:09:53.757Z,26.30
2022-09-02T03:12:25.622Z,24.45
2022-09-02T03:14:54.516Z,28.10
2022-09-02T03:17:23.798Z,29.63
2022-09-02T03:19:52.829Z,28.95
2022-09-02T03:22:21.682Z,31.80
2022-09-02T03:24:51.342Z,33.53
2022-09-02T03:27:20.215Z,37.47
2022-09-02T03:29:50.426Z,36.03
2022-09-02T03:32:19.322Z,38.13
2022-09-02T03:34:49.007Z,38.25
2022-09-02T03:37:18.964Z,41.15
2022-09-02T03:39:48.636Z,38.13
2022-09-02T03:42:19.671Z,38.08
2022-09-02T03:47:21.752Z,40.22
2022-09-02T03:49:54.374Z,39.88
2022-09-02T03:52:24.104Z,39.42
2022-09-02T03:54:53.836Z,43.97
2022-09-02T03:57:26.905Z,54.25
2022-09-02T03:59:57.230Z,51.28
2022-09-02T04:02:26.460Z,55.95
2022-09-02T04:04:55.404Z,57.75
2022-09-02T04:07:24.638Z,62.83
2022-09-02T04:09:56.476Z,62.63
2022-09-02T04:12:25.298Z,63.60
2022-09-02T04:15:03.066Z,61.00
2022-09-02T04:17:32.125Z,68.53
2022-09-02T04:20:00.958Z,67.22
2022-09-02T04:22:29.766Z,67.28
2022-09-02T04:24:58.770Z,68.80
2022-09-02T04:27:28.553Z,67.38
2022-09-02T04:29:58.531Z,66.32
2022-09-02T04:32:31.098Z,60.90
2022-09-02T04:35:00.873Z,58.80
2022-09-02T04:37:30.249Z,58.00
2022-09-02T04:39:59.902Z,57.00
2022-09-02T04:42:29.009Z,57.63
2022-09-02T04:44:59.452Z,60.38
2022-09-02T04:47:31.386Z,58.42
2022-09-02T04:50:00.538Z,58.22
2022-09-02T04:52:29.695Z,55.63
2022-09-02T04:54:58.940Z,57.15
2022-09-02T04:57:27.721Z,58.38
2022-09-02T04:59:57.158Z,58.72
2022-09-02T05:02:26.161Z,63.33
2022-09-02T05:04:56.441Z,64.45
2022-09-02T05:07:31.224Z,70.80
2022-09-02T05:10:02.935Z,67.38
2022-09-02T05:12:37.251Z,66.90
2022-09-02T05:15:07.269Z,65.75
2022-09-02T05:17:37.794Z,68.07
2022-09-02T05:20:10.384Z,64.20
2022-09-02T05:22:41.214Z,61.38
2022-09-02T05:25:11.912Z,50.45
2022-09-02T05:27:41.495Z,44.90
2022-09-02T05:30:11.595Z,35.80
2022-09-02T05:32:42.428Z,38.42
2022-09-02T05:35:13.152Z,35.65
2022-09-02T05:37:42.110Z,31.42
2022-09-02T05:40:14.936Z,31.08
2022-09-02T05:42:44.763Z,29.88
2022-09-02T05:45:16.808Z,42.42
2022-09-02T05:47:46.557Z,31.85
2022-09-02T05:50:17.024Z,29.45
2022-09-02T05:52:51.140Z,31.48
2022-09-02T05:55:21.804Z,26.75
2022-09-02T05:57:51.509Z,24.33
2022-09-02T06:00:20.830Z,26.20
2022-09-02T06:02:57.735Z,23.40
2022-09-02T06:05:33.084Z,22.90
2022-09-02T06:10:44.727Z,22.05
2022-09-02T06:13:22.923Z,23.50
2022-09-02T06:15:55.832Z,22.42
2022-09-02T06:18:27.915Z,21.85
2022-09-02T06:20:59.888Z,19.98
2022-09-02T06:23:35.796Z,14.63
2022-09-02T06:26:05.364Z,15.48
2022-09-02T06:28:34.364Z,15.85
2022-09-02T06:31:08.711Z,18.02
2022-09-02T06:33:39.257Z,17.83
2022-09-02T06:36:10.889Z,17.65
2022-09-02T06:38:45.202Z,17.65
2022-09-02T06:41:17.148Z,18.10
2022-09-02T06:43:47.569Z,15.45
2022-09-02T06:46:26.230Z,13.85
2022-09-02T06:48:58.944Z,18.67
2022-09-02T06:51:32.729Z,21.77
2022-09-02T06:54:05.471Z,17.48
2022-09-02T06:56:38.323Z,16.67
2022-09-02T06:59:08.986Z,16.95
2022-09-02T07:01:45.358Z,17.52
2022-09-02T07:04:35.924Z,25.80
2022-09-02T07:07:09.055Z,18.42
2022-09-02T07:09:44.701Z,17.35
2022-09-02T07:12:19.300Z,17.60
2022-09-02T07:14:54.290Z,16.30
2022-09-02T07:17:28.728Z,15.80
2022-09-02T07:20:03.829Z,12.15
2022-09-02T07:22:40.155Z,10.95
2022-09-02T07:25:11.741Z,11.00
2022-09-02T07:27:40.637Z,10.88
2022-09-02T07:30:11.181Z,9.32
2022-09-02T07:32:41.830Z,9.30
2022-09-02T07:35:11.711Z,7.63
2022-09-02T07:37:42.070Z,5.63
2022-09-02T07:40:14.510Z,10.60
2022-09-02T07:42:44.877Z,11.07
2022-09-02T07:45:14.773Z,12.82
2022-09-02T07:47:45.315Z,4.40
2022-09-02T07:50:20.360Z,3.60
2022-09-02T07:52:57.851Z,5.10
2022-09-02T07:55:31.113Z,4.25
2022-09-02T07:58:00.478Z,3.25
2022-09-02T08:00:29.335Z,3.35
2022-09-02T08:03:05.623Z,4.68
2022-09-02T08:05:41.410Z,3.90
2022-09-02T08:08:11.569Z,3.67
2022-09-02T08:10:40.785Z,3.28
2022-09-02T08:13:11.179Z,3.05
2022-09-02T08:15:40.566Z,2.20
2022-09-02T08:18:17.511Z,3.42
2022-09-02T08:20:54.176Z,3.45
2022-09-02T08:23:40.215Z,3.25
2022-09-02T08:26:09.310Z,3.33
2022-09-02T08:28:39.501Z,2.72
2022-09-02T08:31:08.751Z,14.88
2022-09-02T08:33:38.062Z,3.53
2022-09-02T08:36:08.928Z,2.90
2022-09-02T08:38:39.504Z,2.58
2022-09-02T08:41:15.079Z,2.33
2022-09-02T08:43:45.904Z,3.20
2022-09-02T08:46:18.284Z,2.72
2022-09-02T08:48:53.054Z,3.00
2022-09-02T08:51:33.752Z,2.67
2022-09-02T08:54:11.083Z,2.85
2022-09-02T08:56:41.728Z,3.05
2022-09-02T08:59:13.243Z,3.22
2022-09-02T09:01:49.843Z,3.47
2022-09-02T09:04:28.412Z,3.47
2022-09-02T09:07:09.915Z,10.48
2022-09-02T09:09:53.406Z,2.95
2022-09-02T09:15:06.804Z,3.70
2022-09-02T09:17:44.270Z,5.25
2022-09-02T09:20:18.164Z,4.30
2022-09-02T09:22:49.695Z,3.42
2022-09-02T09:25:20.394Z,3.50
2022-09-02T09:27:51.198Z,3.47
2022-09-02T09:30:20.376Z,4.80
2022-09-02T09:32:54.820Z,3.53
2022-09-02T09:35:24.902Z,3.67
2022-09-02T09:37:56.098Z,3.92
2022-09-02T09:40:31.066Z,4.20
2022-09-02T09:43:15.464Z,3.60
2022-09-02T09:45:47.281Z,3.63
2022-09-02T09:48:27.719Z,4.80
2022-09-02T09:51:16.124Z,4.15
2022-09-02T09:53:45.803Z,3.95
2022-09-02T09:56:37.444Z,4.65
2022-09-02T09:59:30.528Z,3.97
2022-09-02T10:01:59.999Z,3.92
2022-09-02T10:04:42.845Z,4.03
2022-09-02T10:07:13.550Z,4.68
2022-09-02T10:09:42.710Z,4.32
2022-09-02T10:12:14.932Z,4.20
2022-09-02T10:14:46.218Z,5.10
2022-09-02T10:17:28.141Z,4.65
2022-09-02T10:20:05.148Z,4.93
2022-09-02T10:22:59.003Z,4.38
2022-09-02T10:25:41.130Z,4.90
2022-09-02T10:28:21.066Z,5.55
2022-09-02T10:30:56.897Z,6.03
2022-09-02T10:33:34.496Z,5.45
2022-09-02T10:36:18.169Z,5.10
2022-09-02T10:38:50.895Z,5.10
2022-09-02T10:41:33.786Z,5.28
2022-09-02T10:44:31.548Z,5.55
2022-09-02T10:47:04.333Z,4.95
2022-09-02T10:49:51.580Z,5.55
2022-09-02T10:52:46.689Z,5.32
2022-09-02T10:55:22.801Z,6.55
2022-09-02T10:57:59.625Z,6.90
2022-09-02T11:00:33.523Z,6.00
2022-09-02T11:03:12.083Z,6.13
2022-09-02T11:05:48.244Z,6.25
2022-09-02T11:08:28.414Z,6.22
2022-09-02T11:11:07.142Z,6.75
2022-09-02T11:13:43.333Z,6.95
2022-09-02T11:16:20.140Z,7.03
2022-09-02T11:18:59.001Z,6.43
2022-09-02T11:21:46.677Z,7.15
2022-09-02T11:24:20.346Z,7.47
2022-09-02T11:26:57.453Z,8.18
2022-09-02T11:29:38.116Z,9.35
2022-09-02T11:32:19.050Z,7.45
2022-09-02T11:34:51.018Z,7.97
2022-09-02T11:37:31.650Z,9.20
2022-09-02T11:40:30.539Z,8.23
2022-09-02T11:43:09.968Z,7.80
2022-09-02T11:46:19.246Z,7.75
2022-09-02T11:49:16.654Z,8.98
2022-09-02T11:55:03.538Z,8.25
2022-09-02T11:57:33.991Z,7.85
2022-09-02T12:00:10.846Z,11.45
2022-09-02T12:02:45.852Z,9.60
2022-09-02T12:05:52.044Z,8.90
2022-09-02T12:09:10.305Z,9.60
2022-09-02T12:11:47.337Z,9.23
2022-09-02T12:15:06.315Z,10.02
2022-09-02T12:17:42.851Z,9.70
2022-09-02T12:20:33.693Z,8.90
2022-09-02T12:23:04.621Z,8.80
2022-09-02T12:25:44.520Z,9.15
2022-09-02T12:28:25.834Z,9.65
2022-09-02T12:31:24.036Z,10.20
2022-09-02T12:33:53.780Z,10.85
2022-09-02T12:36:48.425Z,10.02
2022-09-02T12:39:58.582Z,10.23
2022-09-02T12:42:34.201Z,9.55
2022-09-02T12:45:14.445Z,9.50
2022-09-02T12:47:55.019Z,9.38
2022-09-02T12:50:30.046Z,9.52
2022-09-02T12:53:20.903Z,8.75
2022-09-02T12:55:57.317Z,9.48
2022-09-02T12:58:27.082Z,9.73
2022-09-02T13:01:07.383Z,9.55
2022-09-02T13:03:58.437Z,10.18
2022-09-02T13:06:44.600Z,9.95
2022-09-02T13:09:49.988Z,9.80
2022-09-02T13:13:08.528Z,9.30
2022-09-02T13:16:04.997Z,9.23
2022-09-02T13:19:13.798Z,10.00
2022-09-02T13:21:59.078Z,9.27
2022-09-02T13:24:53.085Z,10.02
2022-09-02T13:28:12.384Z,10.60
2022-09-02T13:31:02.463Z,9.38
2022-09-02T13:33:31.801Z,9.38
2022-09-02T13:36:01.691Z,9.82
2022-09-02T13:38:33.064Z,9.65
2022-09-02T13:41:02.518Z,9.82
2022-09-02T13:43:32.973Z,9.43
2022-09-02T13:46:03.377Z,10.13
2022-09-02T13:48:34.070Z,8.93
2022-09-02T13:51:13.313Z,9.52
2022-09-02T13:54:05.619Z,8.93
2022-09-02T13:56:36.029Z,8.93
2022-09-02T13:59:06.652Z,10.07
2022-09-02T14:01:40.158Z,8.90
2022-09-02T14:04:14.476Z,8.93
2022-09-02T14:06:48.678Z,9.10
2022-09-02T14:09:22.266Z,9.65
2022-09-02T14:11:53.037Z,8.32
2022-09-02T14:14:25.546Z,9.02
2022-09-02T14:17:14.512Z,8.63
2022-09-02T14:19:43.395Z,9.27
2022-09-02T14:22:23.551Z,8.25
2022-09-02T14:24:52.448Z,9.95
2022-09-02T14:27:23.480Z,9.48
2022-09-02T14:29:58.542Z,8.13
2022-09-02T14:32:29.274Z,8.13
2022-09-02T14:35:12.990Z,8.20
2022-09-02T14:38:00.203Z,7.85
2022-09-02T14:40:38.009Z,6.90
2022-09-02T14:43:14.435Z,7.38
2022-09-02T14:45:48.904Z,7.80
2022-09-02T14:48:22.759Z,8.50
2022-09-02T14:51:02.485Z,9.55
2022-09-02T14:53:33.095Z,9.27
2022-09-02T14:56:02.343Z,8.73
2022-09-02T14:58:31.504Z,8.80
2022-09-02T15:01:03.353Z,7.78
2022-09-02T15:03:37.817Z,7.67
2022-09-02T15:06:07.854Z,9.43
2022-09-02T15:08:39.372Z,6.53
2022-09-02T15:11:08.660Z,7.55
2022-09-02T15:13:37.965Z,6.03
2022-09-02T15:16:08.859Z,6.32
2022-09-02T15:18:38.215Z,5.68
2022-09-02T15:21:07.680Z,5.75
2022-09-02T15:23:41.205Z,6.05
2022-09-02T15:26:10.447Z,7.57
2022-09-02T15:28:39.835Z,6.55
2022-09-02T15:31:10.479Z,6.90
2022-09-02T15:33:41.035Z,6.30
2022-09-02T15:36:12.336Z,7.15
2022-09-02T15:38:42.207Z,6.60
2022-09-02T15:41:13.119Z,6.03
2022-09-02T15:43:43.519Z,6.72
2022-09-02T15:46:23.009Z,6.57
2022-09-02T15:48:52.964Z,7.32
2022-09-02T15:51:30.753Z,7.07
2022-09-02T15:54:01.529Z,7.28
2022-09-02T15:56:32.317Z,7.32
2022-09-02T15:59:04.506Z,6.47
2022-09-02T16:01:36.969Z,6.45
2022-09-02T16:04:07.720Z,6.70
2022-09-02T16:06:39.606Z,7.72
2022-09-02T16:09:09.505Z,6.55
2022-09-02T16:11:38.976Z,6.30
2022-09-02T16:14:08.814Z,5.78
2022-09-02T16:16:39.382Z,8.02
2022-09-02T16:19:09.117Z,6.47
2022-09-02T16:21:39.244Z,6.50
2022-09-02T16:24:09.213Z,6.10
2022-09-02T16:26:39.402Z,6.88
2022-09-02T16:29:09.811Z,6.43
2022-09-02T16:31:41.390Z,6.55
2022-09-02T16:34:12.123Z,6.47
2022-09-02T16:36:43.317Z,5.80
2022-09-02T16:39:14.366Z,6.10
2022-09-02T16:41:46.017Z,5.80
2022-09-02T16:44:20.727Z,5.88
2022-09-02T16:46:52.807Z,8.35
2022-09-02T16:49:22.923Z,9.25
2022-09-02T16:51:57.841Z,10.68
2022-09-02T16:54:31.228Z,12.02
2022-09-02T16:57:01.178Z,13.57
2022-09-02T16:59:31.722Z,13.35
2022-09-02T17:02:02.341Z,14.68
2022-09-02T17:04:31.502Z,16.77
2022-09-02T17:07:00.615Z,16.98
2022-09-02T17:09:29.563Z,17.63
2022-09-02T17:11:58.810Z,17.77
2022-09-02T17:14:27.894Z,18.13
2022-09-02T17:16:56.984Z,16.98
2022-09-02T17:19:32.094Z,17.23
2022-09-02T17:22:01.614Z,17.65
2022-09-02T17:24:31.834Z,18.33
2022-09-02T17:27:02.181Z,18.33
2022-09-02T17:32:21.653Z,17.23
2022-09-02T17:34:52.197Z,18.25
2022-09-02T17:37:22.791Z,18.50
2022-09-02T17:39:51.897Z,18.80
2022-09-02T17:42:21.390Z,18.10
2022-09-02T17:44:51.515Z,19.05
2022-09-02T17:47:22.910Z,18.48
2022-09-02T17:49:53.918Z,17.75
2022-09-02T17:52:24.643Z,18.02
2022-09-02T17:54:54.498Z,19.67
2022-09-02T17:57:42.358Z,19.67
2022-09-02T18:00:13.437Z,18.65
2022-09-02T18:03:22.018Z,19.10
2022-09-02T18:06:17.070Z,18.35
2022-09-02T18:08:53.014Z,20.02
2022-09-02T18:11:23.208Z,20.63
2022-09-02T18:14:01.106Z,20.13
2022-09-02T18:16:33.439Z,21.23
2022-09-02T18:19:19.434Z,21.53
2022-09-02T18:22:06.475Z,19.77
2022-09-02T18:24:57.182Z,21.40
2022-09-02T18:27:38.846Z,19.85
2022-09-02T18:30:10.052Z,21.08
2022-09-02T18:33:05.237Z,21.20
2022-09-02T18:35:47.657Z,21.58
2022-09-02T18:38:28.644Z,22.17
2022-09-02T18:41:14.440Z,21.73
2022-09-02T18:43:57.399Z,20.52
2022-09-02T18:46:29.578Z,22.85
2022-09-02T18:49:02.517Z,22.80
2022-09-02T18:51:36.230Z,22.48
2022-09-02T18:54:15.698Z,22.67
2022-09-02T18:56:50.493Z,23.38
2022-09-02T18:59:28.561Z,22.50
2022-09-02T19:02:02.302Z,22.75
2022-09-02T19:04:34.450Z,24.08
2022-09-02T19:07:21.087Z,25.02
2022-09-02T19:09:52.009Z,24.77
2022-09-02T19:12:21.402Z,25.77
2022-09-02T19:14:51.107Z,25.52
2022-09-02T19:17:20.245Z,26.45
2022-09-02T19:19:49.275Z,27.02
2022-09-02T19:22:24.536Z,26.17
2022-09-02T19:25:00.897Z,27.58
2022-09-02T19:27:33.650Z,28.02
2022-09-02T19:30:07.792Z,27.45
2022-09-02T19:32:38.811Z,25.73
2022-09-02T19:35:16.343Z,25.60
2022-09-02T19:37:47.124Z,29.13
2022-09-02T19:40:20.562Z,28.40
2022-09-02T19:45:21.826Z,27.23
2022-09-02T19:48:08.279Z,25.50
2022-09-02T19:50:38.602Z,27.25
2022-09-02T19:53:07.901Z,25.83
2022-09-02T19:55:38.523Z,27.40
2022-09-02T19:58:07.478Z,25.50
2022-09-02T20:00:43.459Z,25.67
2022-09-02T20:03:13.138Z,25.45
2022-09-02T20:05:42.707Z,25.85
2022-09-02T20:08:12.839Z,24.75
2022-09-02T20:10:43.175Z,25.85
2022-09-02T20:13:16.692Z,24.33
2022-09-02T20:15:45.822Z,24.98
2022-09-02T20:18:16.122Z,24.63
2022-09-02T20:20:46.694Z,25.05
2022-09-02T20:23:17.791Z,28.77
2022-09-02T20:26:10.298Z,24.52
2022-09-02T20:28:47.605Z,23.23
2022-09-02T20:31:26.833Z,22.98
2022-09-02T20:34:05.944Z,23.67
2022-09-02T20:36:39.691Z,23.10
2022-09-02T20:39:22.417Z,23.20
2022-09-02T20:42:04.150Z,23.10
2022-09-02T20:44:44.447Z,20.92
2022-09-02T20:47:35.350Z,20.90
2022-09-02T20:50:16.923Z,21.10
2022-09-02T20:53:00.952Z,20.70
2022-09-02T20:55:36.696Z,19.63
2022-09-02T20:58:19.575Z,20.33
2022-09-02T21:01:01.349Z,19.13
2022-09-02T21:03:41.219Z,17.50
2022-09-02T21:06:12.404Z,18.02
2022-09-02T21:08:48.919Z,19.10
2022-09-02T21:11:19.597Z,19.42
2022-09-02T21:13:55.749Z,18.67
2022-09-02T21:16:32.195Z,18.95
2022-09-02T21:19:08.039Z,18.30
2022-09-02T21:21:42.346Z,18.02
2022-09-02T21:24:15.002Z,16.92
2022-09-02T21:26:49.352Z,17.17
2022-09-02T21:29:27.778Z,17.60
2022-09-02T21:32:00.095Z,15.68
2022-09-02T21:34:34.815Z,16.35
2022-09-02T21:37:05.469Z,15.23
2022-09-02T21:39:39.543Z,16.73
2022-09-02T21:42:23.429Z,16.60
2022-09-02T21:45:06.285Z,15.77
2022-09-02T21:47:39.728Z,16.17
2022-09-02T21:52:56.979Z,15.63
2022-09-02T21:55:40.440Z,16.38
2022-09-02T21:58:28.992Z,14.70
2022-09-02T22:01:05.567Z,15.85
2022-09-02T22:03:42.342Z,16.48
2022-09-02T22:06:19.637Z,15.45
2022-09-02T22:08:58.643Z,16.30
2022-09-02T22:11:35.899Z,16.83
2022-09-02T22:14:14.520Z,15.93
2022-09-02T22:16:53.782Z,15.50
2022-09-02T22:19:24.064Z,15.07
2022-09-02T22:21:58.106Z,15.18
2022-09-02T22:24:31.234Z,15.68
2022-09-02T22:27:06.426Z,15.70
2022-09-02T22:29:42.673Z,15.70
2022-09-02T22:32:15.627Z,14.77
2022-09-02T22:34:50.736Z,15.52
2022-09-02T22:37:26.071Z,14.35
2022-09-02T22:39:57.318Z,15.98
2022-09-02T22:42:33.989Z,14.40
2022-09-02T22:45:26.232Z,14.55
2022-09-02T22:48:19.872Z,13.02
2022-09-02T22:51:15.034Z,13.48
2022-09-02T22:53:48.097Z,14.27
2022-09-02T22:56:26.552Z,13.38
2022-09-02T22:59:08.580Z,13.65
2022-09-02T23:01:53.584Z,13.55
2022-09-02T23:04:35.654Z,13.20
2022-09-02T23:07:05.505Z,13.75
2022-09-02T23:09:36.435Z,12.73
2022-09-02T23:12:17.893Z,12.70
2022-09-02T23:15:02.586Z,13.07
2022-09-02T23:17:44.636Z,12.63
2022-09-02T23:20:25.467Z,12.05
2022-09-02T23:23:07.392Z,12.38
2022-09-02T23:25:54.473Z,10.85
2022-09-02T23:28:32.480Z,11.35
2022-09-02T23:31:08.112Z,11.93
2022-09-02T23:33:51.446Z,12.15
2022-09-02T23:36:36.127Z,11.85
2022-09-02T23:39:19.085Z,11.38
2022-09-02T23:41:48.806Z,10.95
2022-09-02T23:44:23.071Z,10.90
2022-09-02T23:47:05.566Z,10.43
2022-09-02T23:49:40.265Z,10.27
2022-09-02T23:52:27.492Z,10.20
2022-09-02T23:55:13.310Z,9.88
2022-09-02T23:58:03.362Z,10.93
